Time;durP1;ratioP1;P1;durP2;ratioP2;P2;SDS_P1;SDS_P2;PMS_P1;PMS_P2;Temp;Humidity;BMP_temperature;BMP_pressure;BME280_temperature;BME280_humidity;BME280_pressure;Samples;Min_cycle;Max_cycle;Signal;HPM_P1;HPM_P2
2021/07/30 00:00:40;;;;;;;10.95;4.47;;;;;;;16.16;61.43;101032.84;5081188;28;20025;-72
2021/07/30 00:03:06;;;;;;;16.67;5.05;;;;;;;15.63;63.95;101036.88;5047605;28;20029;-72
2021/07/30 00:05:31;;;;;;;5.63;4.00;;;;;;;15.85;63.29;101031.19;5079568;28;20037;-72
2021/07/30 00:07:57;;;;;;;11.20;3.90;;;;;;;16.26;61.79;101028.69;5079884;28;20021;-72
2021/07/30 00:10:22;;;;;;;10.45;4.78;;;;;;;16.20;61.74;101026.41;5080110;28;20036;-72
2021/07/30 00:12:55;;;;;;;11.93;4.38;;;;;;;16.38;61.70;101020.94;5079698;28;20344;-72
2021/07/30 00:15:21;;;;;;;11.55;4.30;;;;;;;15.72;63.19;101025.78;5078953;28;20240;-72
2021/07/30 00:17:46;;;;;;;12.45;4.28;;;;;;;15.77;67.24;101021.09;5079940;28;20043;-72
2021/07/30 00:20:11;;;;;;;12.35;4.55;;;;;;;16.14;63.02;101016.22;5078205;28;20335;-72
2021/07/30 00:22:37;;;;;;;6.72;4.00;;;;;;;16.02;64.29;101016.97;5079185;28;20033;-72
2021/07/30 00:25:03;;;;;;;8.70;4.40;;;;;;;15.92;63.22;101017.53;5080709;28;20091;-72
2021/07/30 00:27:28;;;;;;;10.43;4.50;;;;;;;15.65;63.93;101020.00;5080078;28;20031;-72
2021/07/30 00:29:54;;;;;;;9.73;3.97;;;;;;;16.23;63.47;101007.72;5080295;28;20036;-72
2021/07/30 00:32:19;;;;;;;13.98;4.43;;;;;;;15.57;64.57;101019.56;5080153;28;20047;-72
2021/07/30 00:34:45;;;;;;;11.48;4.05;;;;;;;15.75;63.31;101009.75;5080367;28;20099;-72
2021/07/30 00:37:13;;;;;;;9.25;4.38;;;;;;;15.41;65.10;101014.38;5080546;28;20037;-72
2021/07/30 00:39:39;;;;;;;7.60;4.10;;;;;;;15.64;66.92;101015.63;5079022;28;20029;-72
2021/07/30 00:42:04;;;;;;;12.75;4.32;;;;;;;15.50;65.28;101010.34;5080716;28;20089;-72
2021/07/30 00:44:30;;;;;;;9.27;4.03;;;;;;;15.73;65.92;101004.56;5060847;28;20040;-72
2021/07/30 00:46:56;;;;;;;9.80;3.95;;;;;;;15.74;64.60;101011.56;5080278;28;20254;-72
2021/07/30 00:49:22;;;;;;;15.27;3.80;;;;;;;15.65;64.54;101014.72;5061846;28;20123;-72
2021/07/30 00:51:47;;;;;;;13.63;4.03;;;;;;;15.27;65.55;101001.97;5042288;28;20079;-72
2021/07/30 00:54:13;;;;;;;16.00;3.80;;;;;;;15.21;66.40;100996.19;5078546;28;20354;-72
2021/07/30 00:56:38;;;;;;;9.45;4.03;;;;;;;15.16;67.10;100992.03;5062217;28;20028;-72
2021/07/30 00:59:03;;;;;;;11.13;4.10;;;;;;;15.24;66.16;100999.50;5080011;28;20044;-72
2021/07/30 01:01:29;;;;;;;15.80;4.40;;;;;;;15.93;65.81;100998.13;5045234;28;20025;-72
2021/07/30 01:03:54;;;;;;;11.18;4.25;;;;;;;15.12;66.59;100995.78;5079294;28;20043;-72
2021/07/30 01:06:20;;;;;;;10.00;3.83;;;;;;;15.90;68.08;101000.94;5078332;28;20258;-72
2021/07/30 01:08:45;;;;;;;10.18;4.55;;;;;;;15.03;67.51;101011.28;5078983;28;20051;-72
2021/07/30 01:11:10;;;;;;;8.90;4.28;;;;;;;15.03;67.97;101004.22;5078762;28;20344;-71
2021/07/30 01:13:36;;;;;;;13.32;4.50;;;;;;;14.84;68.60;100996.50;5080002;28;20108;-71
2021/07/30 01:16:01;;;;;;;9.13;4.90;;;;;;;14.65;68.72;101007.22;5079454;28;20028;-71
2021/07/30 01:18:27;;;;;;;13.38;4.45;;;;;;;14.71;69.09;101011.28;5078552;28;20048;-72
2021/07/30 01:21:01;;;;;;;9.65;4.05;;;;;;;14.96;68.24;101005.50;5080167;28;20318;-72
2021/07/30 01:23:26;;;;;;;11.20;4.65;;;;;;;14.90;68.44;101008.50;5079801;28;20028;-72
2021/07/30 01:25:52;;;;;;;7.05;3.92;;;;;;;15.30;67.27;101012.34;5078716;28;20111;-72
2021/07/30 01:28:17;;;;;;;10.00;4.10;;;;;;;14.84;68.19;101006.19;5078326;28;20099;-72
2021/07/30 01:30:43;;;;;;;7.60;4.00;;;;;;;14.79;69.39;101003.81;5079747;28;20111;-72
2021/07/30 01:33:08;;;;;;;12.98;4.78;;;;;;;14.91;68.86;101003.13;5081870;28;20036;-72
2021/07/30 01:35:33;;;;;;;17.95;5.57;;;;;;;14.90;69.73;101001.44;5083017;28;20425;-72
2021/07/30 01:37:59;;;;;;;12.45;4.82;;;;;;;14.51;70.34;100999.19;5084024;28;20095;-72
2021/07/30 01:40:24;;;;;;;7.60;4.63;;;;;;;14.93;69.13;100995.13;5082945;28;20503;-72
2021/07/30 01:42:50;;;;;;;10.93;4.18;;;;;;;14.73;69.35;100990.97;5082676;28;20032;-72
2021/07/30 01:45:15;;;;;;;10.98;4.50;;;;;;;14.93;68.78;100993.31;5065046;28;20052;-72
2021/07/30 01:47:41;;;;;;;17.40;5.00;;;;;;;15.04;70.78;100997.16;5082298;28;20036;-72
2021/07/30 01:50:06;;;;;;;12.77;3.88;;;;;;;14.95;68.62;100996.75;5083483;28;20039;-72
2021/07/30 01:52:32;;;;;;;10.73;4.85;;;;;;;14.80;69.17;100994.13;5083383;28;20261;-72
2021/07/30 01:54:57;;;;;;;8.05;4.30;;;;;;;14.72;69.59;100997.19;5082692;28;20040;-72
2021/07/30 01:57:23;;;;;;;15.60;4.97;;;;;;;14.89;69.64;100997.09;5082806;28;20327;-72
2021/07/30 01:59:48;;;;;;;14.80;4.63;;;;;;;14.84;69.43;100995.66;5083283;28;20046;-72
2021/07/30 02:02:13;;;;;;;9.38;4.40;;;;;;;14.54;70.75;100997.22;5080991;28;20036;-72
2021/07/30 02:04:39;;;;;;;11.95;4.72;;;;;;;14.88;71.10;100991.88;5081767;28;20036;-72
2021/07/30 02:07:05;;;;;;;10.73;4.32;;;;;;;14.85;69.80;100997.34;5083225;28;20036;-72
2021/07/30 02:09:31;;;;;;;13.30;4.72;;;;;;;15.15;69.27;100989.47;5048402;28;20044;-72
2021/07/30 02:11:56;;;;;;;9.68;3.85;;;;;;;15.61;67.60;100980.66;5082096;28;20032;-72
2021/07/30 02:14:25;;;;;;;8.85;4.55;;;;;;;14.87;69.83;100974.38;5082371;28;20040;-72
2021/07/30 02:16:53;;;;;;;11.73;3.90;;;;;;;15.02;69.18;100976.13;5077275;28;20032;-72
2021/07/30 02:19:19;;;;;;;15.05;4.90;;;;;;;15.54;68.00;100973.13;5081533;28;20232;-72
2021/07/30 02:21:48;;;;;;;10.77;4.45;;;;;;;15.13;68.31;100978.16;5065192;28;20037;-72
2021/07/30 02:24:14;;;;;;;12.07;5.10;;;;;;;15.53;68.73;100967.91;5048111;28;20099;-72
2021/07/30 02:26:39;;;;;;;11.38;4.85;;;;;;;15.44;68.90;100968.47;5081579;28;20043;-72
2021/07/30 02:29:05;;;;;;;9.50;4.47;;;;;;;15.50;67.98;100962.84;5083168;28;20033;-72
2021/07/30 02:31:30;;;;;;;9.15;4.53;;;;;;;15.23;70.40;100963.50;5082358;28;20236;-72
2021/07/30 02:33:56;;;;;;;13.15;4.35;;;;;;;14.83;69.68;100968.44;5081374;28;20036;-72
2021/07/30 02:36:21;;;;;;;11.73;4.80;;;;;;;15.54;67.70;100954.63;5064030;28;20352;-72
2021/07/30 02:38:46;;;;;;;14.52;5.15;;;;;;;15.31;69.92;100966.53;5081731;28;20214;-72
2021/07/30 02:41:12;;;;;;;22.85;5.65;;;;;;;15.15;68.35;100971.00;5060800;28;20025;-72
2021/07/30 02:43:38;;;;;;;15.95;5.07;;;;;;;15.08;69.33;100972.28;5065178;28;20028;-72
2021/07/30 02:46:03;;;;;;;9.85;4.60;;;;;;;15.55;67.82;100964.25;5080597;28;20028;-72
2021/07/30 02:48:29;;;;;;;12.82;4.68;;;;;;;15.03;69.18;100959.41;5080680;28;20028;-72
2021/07/30 02:50:54;;;;;;;12.50;4.45;;;;;;;15.13;71.43;100963.22;5083056;28;20222;-72
2021/07/30 02:53:19;;;;;;;13.45;5.10;;;;;;;15.24;68.56;100967.00;5082737;28;20036;-72
2021/07/30 02:55:46;;;;;;;11.00;4.80;;;;;;;14.98;69.52;100959.63;5081226;28;20036;-72
2021/07/30 02:58:12;;;;;;;12.73;4.90;;;;;;;14.67;70.26;100955.25;5080628;28;20118;-72
2021/07/30 03:00:37;;;;;;;16.67;5.05;;;;;;;15.29;69.05;100957.88;5081231;28;20338;-73
2021/07/30 03:03:03;;;;;;;9.70;4.72;;;;;;;15.03;70.23;100956.75;5082201;28;20036;-73
2021/07/30 03:05:29;;;;;;;11.23;4.57;;;;;;;15.26;69.55;100949.28;5063896;28;20043;-73
2021/07/30 03:07:54;;;;;;;9.35;5.15;;;;;;;14.77;72.45;100959.09;5082166;28;20036;-73
2021/07/30 03:10:19;;;;;;;14.50;4.90;;;;;;;14.97;70.31;100944.78;5081264;28;20040;-73
2021/07/30 03:12:45;;;;;;;17.15;4.97;;;;;;;14.88;71.25;100941.78;5081965;28;20087;-73
2021/07/30 03:15:11;;;;;;;12.77;5.20;;;;;;;14.91;72.14;100939.00;5081473;28;20103;-73
2021/07/30 03:17:36;;;;;;;9.50;4.20;;;;;;;15.25;69.87;100937.88;5080492;28;20037;-73
2021/07/30 03:20:05;;;;;;;11.35;4.57;;;;;;;15.10;70.13;100931.72;5081929;28;20258;-73
2021/07/30 03:22:30;;;;;;;;;;;;;;;15.40;69.32;100938.75;5060723;28;20033;-74
2021/07/30 03:24:55;;;;;;;13.57;5.27;;;;;;;14.82;71.60;100927.19;5061866;28;20126;-74
2021/07/30 03:27:21;;;;;;;13.55;5.80;;;;;;;14.67;72.31;100935.97;5074119;28;20085;-74
2021/07/30 03:29:46;;;;;;;12.00;5.30;;;;;;;14.83;71.83;100925.41;5081466;28;20095;-74
2021/07/30 03:32:12;;;;;;;11.50;5.32;;;;;;;14.62;72.55;100925.66;5059771;28;20017;-74
2021/07/30 03:34:37;;;;;;;15.43;5.85;;;;;;;15.27;71.47;100930.72;5077491;28;20074;-74
2021/07/30 03:37:03;;;;;;;13.38;5.97;;;;;;;14.90;71.64;100932.88;5081397;28;20220;-74
2021/07/30 03:39:28;;;;;;;16.55;6.25;;;;;;;14.71;72.09;100932.22;5079733;28;20062;-74
2021/07/30 03:41:54;;;;;;;11.98;5.40;;;;;;;14.98;71.20;100929.78;5081537;28;20036;-74
2021/07/30 03:44:19;;;;;;;6.65;4.78;;;;;;;15.21;70.73;100936.38;5062681;28;20036;-74
2021/07/30 03:46:45;;;;;;;11.68;5.32;;;;;;;15.21;70.37;100941.66;5080106;28;20215;-74
2021/07/30 03:49:10;;;;;;;13.20;5.28;;;;;;;15.02;71.10;100939.22;5081166;28;20028;-74
2021/07/30 03:51:35;;;;;;;16.17;5.78;;;;;;;14.91;71.90;100937.19;5080639;28;20110;-74
2021/07/30 03:54:01;;;;;;;12.70;5.60;;;;;;;15.20;71.12;100933.81;5080377;28;20037;-73
2021/07/30 03:56:26;;;;;;;13.57;5.25;;;;;;;15.41;69.89;100937.84;5078360;28;20037;-73
2021/07/30 03:58:52;;;;;;;16.75;5.63;;;;;;;15.32;70.78;100935.75;5079777;28;20227;-73
2021/07/30 04:01:17;;;;;;;14.27;5.10;;;;;;;15.46;70.62;100929.63;5080599;28;20137;-73
2021/07/30 04:03:44;;;;;;;14.23;5.95;;;;;;;15.32;70.92;100935.75;5081003;28;20043;-73
2021/07/30 04:06:09;;;;;;;15.63;6.00;;;;;;;14.91;72.20;100937.19;5079905;28;20039;-73
2021/07/30 04:08:35;;;;;;;14.50;5.53;;;;;;;15.21;71.06;100941.66;5045982;28;20040;-73
2021/07/30 04:11:01;;;;;;;9.25;4.93;;;;;;;15.26;71.09;100928.19;5062994;28;20059;-73
2021/07/30 04:13:26;;;;;;;9.90;5.57;;;;;;;14.83;72.73;100918.34;5079132;28;20036;-73
2021/07/30 04:15:52;;;;;;;16.05;5.88;;;;;;;15.08;72.45;100914.28;5059342;28;20304;-73
2021/07/30 04:18:17;;;;;;;16.40;5.60;;;;;;;15.12;71.91;100906.09;5077289;28;20089;-73
2021/07/30 04:20:42;;;;;;;17.95;6.25;;;;;;;14.87;72.74;100906.69;5079164;28;20095;-73
2021/07/30 04:23:08;;;;;;;15.20;5.63;;;;;;;15.20;72.21;100915.34;5080949;28;20394;-73
2021/07/30 04:25:33;;;;;;;14.13;5.93;;;;;;;15.20;71.71;100920.63;5078966;28;20043;-73
2021/07/30 04:27:59;;;;;;;12.40;5.35;;;;;;;15.57;70.84;100915.78;5076386;28;20351;-73
2021/07/30 04:30:24;;;;;;;13.40;5.75;;;;;;;15.36;71.48;100911.72;5077984;28;20085;-73
2021/07/30 04:32:50;;;;;;;16.08;6.05;;;;;;;15.23;71.94;100912.56;5078915;28;20063;-73
2021/07/30 04:35:16;;;;;;;22.17;5.78;;;;;;;15.12;71.82;100907.91;5077787;28;20327;-73
2021/07/30 04:37:41;;;;;;;8.95;5.22;;;;;;;15.63;70.01;100904.88;5078663;28;20040;-73
2021/07/30 04:40:07;;;;;;;11.70;5.53;;;;;;;15.43;70.76;100893.72;5076784;28;20032;-73
2021/07/30 04:42:32;;;;;;;15.40;5.75;;;;;;;15.53;70.23;100891.38;5078434;28;20040;-73
2021/07/30 04:44:58;;;;;;;12.35;5.63;;;;;;;15.48;70.45;100888.16;5078350;28;20032;-74
2021/07/30 04:47:23;;;;;;;14.05;5.03;;;;;;;15.34;70.83;100900.41;5076068;28;20033;-74
2021/07/30 04:49:49;;;;;;;14.32;5.35;;;;;;;15.55;70.98;100898.28;5076934;28;20052;-74
2021/07/30 04:52:14;;;;;;;15.15;6.07;;;;;;;15.38;70.61;100889.69;5078050;28;20177;-74
2021/07/30 04:54:39;;;;;;;11.93;5.82;;;;;;;15.41;70.76;100892.09;5060746;28;20020;-74
2021/07/30 04:57:05;;;;;;;11.23;5.30;;;;;;;15.78;69.46;100893.41;5078404;28;20366;-74
2021/07/30 04:59:30;;;;;;;14.25;5.95;;;;;;;15.99;68.28;100885.94;5060582;28;20410;-74
2021/07/30 05:01:56;;;;;;;10.13;5.20;;;;;;;16.46;66.70;100887.38;5062177;28;20040;-74
2021/07/30 05:04:21;;;;;;;10.88;5.03;;;;;;;15.95;67.78;100887.06;5079747;28;20044;-74
2021/07/30 05:06:47;;;;;;;13.57;5.85;;;;;;;15.72;68.68;100886.69;5080156;28;20086;-74
2021/07/30 05:09:12;;;;;;;10.38;5.55;;;;;;;15.90;67.73;100890.00;5061716;28;20028;-73
2021/07/30 05:11:38;;;;;;;14.95;5.75;;;;;;;15.97;67.07;100884.31;5080200;28;20044;-73
2021/07/30 05:14:04;;;;;;;17.65;6.05;;;;;;;15.78;68.73;100887.28;5080289;28;20222;-73
2021/07/30 05:16:29;;;;;;;17.23;6.18;;;;;;;16.02;67.28;100887.53;5079251;28;20032;-73
2021/07/30 05:18:55;;;;;;;13.18;5.90;;;;;;;15.77;68.76;100889.09;5079132;28;20028;-73
2021/07/30 05:21:20;;;;;;;19.35;6.00;;;;;;;15.63;69.57;100889.88;5058109;28;20031;-73
2021/07/30 05:23:46;;;;;;;19.10;6.38;;;;;;;15.78;69.45;100888.13;5074948;28;20037;-73
2021/07/30 05:26:11;;;;;;;13.35;5.28;;;;;;;15.83;68.93;100883.41;5078588;28;20033;-73
2021/07/30 05:28:36;;;;;;;15.90;5.65;;;;;;;16.00;67.77;100876.22;5080388;28;20307;-73
2021/07/30 05:31:02;;;;;;;15.63;5.85;;;;;;;15.94;67.54;100872.19;5078716;28;20032;-74
2021/07/30 05:33:27;;;;;;;13.82;5.88;;;;;;;16.68;64.93;100878.88;5068159;28;20033;-74
2021/07/30 05:35:53;;;;;;;8.95;3.35;;;;;;;20.52;54.78;100872.84;5058649;28;20033;-74
2021/07/30 05:38:19;;;;;;;4.60;2.92;;;;;;;20.51;54.85;100875.63;5041779;28;20041;-74
2021/07/30 05:40:45;;;;;;;4.38;2.50;;;;;;;20.71;54.58;100872.19;5045699;28;20044;-74
2021/07/30 05:43:10;;;;;;;10.43;3.78;;;;;;;20.52;55.09;100869.34;5057110;28;20351;-73
2021/07/30 05:45:35;;;;;;;12.20;3.58;;;;;;;20.22;54.01;100864.69;5065938;28;20028;-74
2021/07/30 05:48:01;;;;;;;11.27;3.75;;;;;;;20.45;55.48;100861.00;5077314;28;20045;-74
2021/07/30 05:50:26;;;;;;;9.43;3.92;;;;;;;19.57;55.67;100861.81;5077142;28;20054;-74
2021/07/30 05:52:52;;;;;;;4.95;3.42;;;;;;;20.44;55.90;100872.59;5078047;28;20036;-74
2021/07/30 05:55:18;;;;;;;4.18;2.83;;;;;;;20.60;55.44;100861.56;5058010;28;20081;-74
2021/07/30 05:57:44;;;;;;;10.98;3.67;;;;;;;20.23;54.03;100856.59;5078626;28;20348;-74
2021/07/30 06:00:09;;;;;;;7.00;2.75;;;;;;;20.31;56.21;100855.97;5078429;28;20028;-74
2021/07/30 06:02:35;;;;;;;5.80;3.00;;;;;;;20.64;55.38;100849.72;5046689;28;20043;-74
2021/07/30 06:05:00;;;;;;;7.25;3.00;;;;;;;20.66;55.08;100853.09;5058252;28;20027;-73
2021/07/30 06:07:25;;;;;;;7.78;3.20;;;;;;;20.58;55.41;100855.53;5058025;28;20052;-74
2021/07/30 06:09:51;;;;;;;8.45;3.63;;;;;;;20.74;54.42;100851.59;5058503;28;20032;-74
2021/07/30 06:12:16;;;;;;;6.60;3.65;;;;;;;20.85;54.18;100854.25;5058061;28;20033;-74
2021/07/30 06:14:44;;;;;;;6.95;3.00;;;;;;;20.75;54.28;100858.63;5041558;28;20033;-73
2021/07/30 06:17:10;;;;;;;10.52;3.30;;;;;;;20.46;54.46;100849.38;5055190;28;20060;-74
2021/07/30 06:19:35;;;;;;;7.05;3.28;;;;;;;20.64;54.40;100847.06;5077866;28;20384;-74
2021/07/30 06:22:00;;;;;;;9.77;4.30;;;;;;;20.00;52.66;100849.63;5078994;28;20046;-74
2021/07/30 06:24:26;;;;;;;15.20;4.22;;;;;;;19.36;55.10;100843.94;5077887;28;20073;-74
2021/07/30 06:26:51;;;;;;;13.07;4.53;;;;;;;18.97;55.59;100840.75;5062260;28;20038;-74
2021/07/30 06:29:17;;;;;;;6.63;3.38;;;;;;;19.99;56.45;100840.81;5044928;28;20024;-74
2021/07/30 06:31:42;;;;;;;10.13;3.58;;;;;;;20.71;54.43;100837.59;5076788;28;20162;-74
2021/07/30 06:34:08;;;;;;;7.50;3.50;;;;;;;20.26;55.14;100835.06;5078733;28;20028;-74
2021/07/30 06:36:34;;;;;;;5.22;3.25;;;;;;;20.23;55.36;100842.44;5043188;28;20041;-74
2021/07/30 06:38:59;;;;;;;5.28;3.30;;;;;;;20.74;54.43;100828.53;5075709;28;20369;-74
2021/07/30 06:41:24;;;;;;;8.57;3.38;;;;;;;20.61;55.02;100827.84;5059974;28;20039;-74
2021/07/30 06:43:50;;;;;;;4.15;3.00;;;;;;;20.02;55.14;100831.75;5079796;28;20058;-74
2021/07/30 06:46:15;;;;;;;9.90;3.83;;;;;;;20.18;55.04;100826.03;5079781;28;20197;-74
2021/07/30 06:48:41;;;;;;;10.75;4.13;;;;;;;19.60;54.42;100828.88;5069089;28;20039;-73
2021/07/30 06:51:09;;;;;;;7.28;3.50;;;;;;;20.74;54.57;100823.19;5071521;28;20036;-74
2021/07/30 06:53:34;;;;;;;9.63;4.00;;;;;;;19.77;54.38;100827.56;5061255;28;20041;-74
2021/07/30 06:56:00;;;;;;;9.65;3.95;;;;;;;19.77;54.63;100824.91;5063130;28;20219;-74
2021/07/30 06:58:25;;;;;;;11.05;3.42;;;;;;;20.64;54.89;100820.44;5050261;28;20112;-74
2021/07/30 07:00:50;;;;;;;8.68;4.50;;;;;;;20.07;53.67;100829.56;5063441;28;20118;-74
2021/07/30 07:03:16;;;;;;;8.68;4.40;;;;;;;19.89;53.68;100819.44;5081847;28;20208;-74
2021/07/30 07:05:41;;;;;;;7.85;4.35;;;;;;;20.16;55.49;100820.84;5080882;28;20215;-74
2021/07/30 07:08:07;;;;;;;11.68;5.10;;;;;;;19.49;54.85;100813.78;5082002;28;20108;-74
2021/07/30 07:10:32;;;;;;;15.93;3.47;;;;;;;20.76;54.18;100812.44;5080340;28;20028;-74
2021/07/30 07:12:58;;;;;;;12.85;5.00;;;;;;;19.06;58.18;100817.94;5069027;28;20044;-74
2021/07/30 07:15:23;;;;;;;12.40;4.80;;;;;;;19.65;55.56;100818.72;5088830;28;20031;-74
2021/07/30 07:17:48;;;;;;;14.50;4.90;;;;;;;19.49;55.43;100803.16;5062054;28;20312;-74
2021/07/30 07:20:14;;;;;;;21.10;5.10;;;;;;;19.81;54.93;100808.59;5067865;28;20086;-74
2021/07/30 07:22:39;;;;;;;8.48;3.13;;;;;;;21.54;51.97;100803.06;5058744;28;20040;-75
2021/07/30 07:25:05;;;;;;;14.25;4.57;;;;;;;21.22;52.15;100795.19;5076704;28;20032;-73
2021/07/30 07:27:31;;;;;;;19.58;4.90;;;;;;;20.55;55.30;100786.59;5071973;28;20040;-73
2021/07/30 07:29:56;;;;;;;8.88;4.20;;;;;;;21.08;52.17;100789.25;5081895;28;20219;-74
2021/07/30 07:32:21;;;;;;;14.27;4.55;;;;;;;21.91;51.63;100778.47;5081874;28;21160;-73
2021/07/30 07:34:47;;;;;;;15.40;4.55;;;;;;;21.21;51.79;100777.50;5087867;28;20038;-73
2021/07/30 07:37:12;;;;;;;8.48;4.78;;;;;;;21.11;52.69;100772.16;5080513;28;20062;-73
2021/07/30 07:39:38;;;;;;;10.88;4.53;;;;;;;20.66;55.17;100783.91;5078844;28;20044;-74
2021/07/30 07:42:03;;;;;;;16.92;4.18;;;;;;;20.77;53.07;100776.84;5072537;28;20587;-74
2021/07/30 07:44:28;;;;;;;13.20;4.80;;;;;;;21.57;52.53;100770.81;5080893;28;20089;-74
2021/07/30 07:46:55;;;;;;;18.63;4.40;;;;;;;21.72;51.87;100765.97;5076271;28;20039;-75
2021/07/30 07:49:20;;;;;;;15.77;5.38;;;;;;;22.44;50.86;100750.59;5076594;28;20037;-74
2021/07/30 07:51:45;;;;;;;29.33;4.93;;;;;;;22.64;52.40;100751.41;5075955;28;20060;-75
2021/07/30 07:54:23;;;;;;;13.38;4.18;;;;;;;21.86;49.16;100751.38;5082902;28;20044;-75
2021/07/30 07:56:48;;;;;;;28.63;5.15;;;;;;;23.19;49.64;100756.94;5041653;28;20033;-73
2021/07/30 07:59:14;;;;;;;19.45;4.28;;;;;;;23.66;48.49;100760.50;5079192;28;20062;-76
2021/07/30 08:01:39;;;;;;;31.65;4.85;;;;;;;22.95;51.98;100757.38;5074560;28;20040;-75
2021/07/30 08:04:04;;;;;;;9.00;4.20;;;;;;;22.23;48.87;100751.56;5079947;28;20278;-75
2021/07/30 08:06:30;;;;;;;18.42;4.80;;;;;;;23.13;51.04;100749.50;5072872;28;20218;-76
2021/07/30 08:08:55;;;;;;;33.30;4.95;;;;;;;23.44;49.47;100759.91;5078693;28;20224;-76
2021/07/30 08:11:20;;;;;;;12.73;4.80;;;;;;;23.44;48.27;100751.91;5080458;28;20035;-74
2021/07/30 08:13:46;;;;;;;16.80;5.07;;;;;;;23.83;47.42;100756.19;5069642;28;20331;-76
2021/07/30 08:16:11;;;;;;;22.55;5.57;;;;;;;23.66;48.93;100755.16;5079106;28;20040;-76
2021/07/30 08:18:37;;;;;;;14.27;4.72;;;;;;;24.23;45.81;100762.94;5075269;28;20081;-77
2021/07/30 08:21:03;;;;;;;9.55;4.35;;;;;;;23.16;46.86;100749.22;5082117;28;20185;-76
2021/07/30 08:23:29;;;;;;;20.15;5.05;;;;;;;23.08;50.25;100757.09;5059857;28;20041;-76
2021/07/30 08:25:54;;;;;;;9.63;3.95;;;;;;;23.05;47.67;100749.41;5058310;28;20349;-76
2021/07/30 08:28:20;;;;;;;28.10;4.85;;;;;;;24.21;50.44;100747.03;5074970;28;20153;-76
2021/07/30 08:30:45;;;;;;;8.00;4.00;;;;;;;24.27;45.76;100741.09;5080849;28;20044;-76
2021/07/30 08:33:10;;;;;;;19.52;4.55;;;;;;;25.12;46.38;100731.66;5072409;28;20089;-76
2021/07/30 08:35:36;;;;;;;11.38;4.18;;;;;;;24.12;46.59;100731.91;5080290;28;20107;-75
2021/07/30 08:38:02;;;;;;;16.70;5.13;;;;;;;25.74;45.72;100737.63;5062175;28;20224;-76
2021/07/30 08:40:31;;;;;;;34.70;5.85;;;;;;;25.10;45.42;100729.97;5080971;28;20064;-77
2021/07/30 08:42:57;;;;;;;35.70;6.18;;;;;;;24.72;48.07;100723.22;5058430;28;20036;-78
2021/07/30 08:45:23;;;;;;;21.73;4.97;;;;;;;24.87;47.97;100723.50;5057046;28;20033;-77
2021/07/30 08:47:49;;;;;;;15.32;3.83;;;;;;;24.20;45.04;100723.16;5076699;28;20040;-74
2021/07/30 08:50:14;;;;;;;43.10;5.68;;;;;;;24.49;49.05;100717.53;5042628;28;20324;-77
2021/07/30 08:52:41;;;;;;;17.25;3.88;;;;;;;23.99;47.91;100721.59;5080862;28;20036;-77
2021/07/30 08:55:07;;;;;;;7.97;3.17;;;;;;;23.39;45.70;100716.75;5072015;28;20340;-77
2021/07/30 08:57:33;;;;;;;32.17;5.60;;;;;;;23.68;49.50;100710.41;5060552;28;20064;-76
2021/07/30 09:00:09;;;;;;;22.30;3.67;;;;;;;23.15;50.77;100703.94;5029780;28;20306;-76
2021/07/30 09:02:34;;;;;;;11.68;3.50;;;;;;;23.10;47.17;100696.38;5054602;28;20024;-76
2021/07/30 09:05:37;;;;;;;11.38;3.72;;;;;;;23.08;48.12;100703.69;5081750;28;20028;-77
2021/07/30 09:08:04;;;;;;;12.40;3.33;;;;;;;23.12;47.57;100699.75;5076610;28;20036;-77
2021/07/30 09:10:41;;;;;;;10.43;3.92;;;;;;;22.69;49.68;100692.28;5079859;28;20358;-77
2021/07/30 09:13:23;;;;;;;7.75;3.20;;;;;;;22.86;49.84;100691.50;5065896;28;20045;-76
2021/07/30 09:16:08;;;;;;;6.88;3.08;;;;;;;22.61;48.20;100688.50;5082384;28;20032;-77
2021/07/30 09:18:37;;;;;;;14.95;4.05;;;;;;;23.11;49.40;100695.38;5056558;28;20276;-76
2021/07/30 09:21:24;;;;;;;7.07;3.28;;;;;;;22.51;48.50;100684.19;5060654;28;20032;-76
2021/07/30 09:24:06;;;;;;;10.60;3.58;;;;;;;22.75;49.37;100694.38;5073803;28;20023;-75
2021/07/30 09:26:59;;;;;;;6.55;3.40;;;;;;;22.84;47.88;100684.66;5075256;28;20033;-76
2021/07/30 09:29:25;;;;;;;16.73;4.50;;;;;;;23.31;49.09;100689.94;5073107;28;20052;-75
2021/07/30 09:32:04;;;;;;;26.98;3.85;;;;;;;23.49;48.05;100685.47;5073106;28;20047;-74
2021/07/30 09:34:48;;;;;;;10.63;3.22;;;;;;;23.68;48.16;100681.00;5081463;28;20178;-74
2021/07/30 09:37:22;;;;;;;9.50;3.45;;;;;;;23.20;48.06;100674.97;5065124;28;20033;-76
2021/07/30 09:39:49;;;;;;;11.48;3.80;;;;;;;22.65;47.51;100666.84;5054230;28;20042;-77
2021/07/30 09:42:28;;;;;;;54.05;7.88;;;;;;;22.89;49.28;100679.72;5080529;28;20059;-74
2021/07/30 09:44:59;;;;;;;17.80;4.50;;;;;;;23.11;48.20;100683.88;5075784;28;20269;-73
2021/07/30 09:47:25;;;;;;;23.38;4.45;;;;;;;23.33;48.87;100680.78;5065783;28;20024;-73
2021/07/30 09:49:57;;;;;;;21.77;4.80;;;;;;;23.27;48.82;100677.88;5064993;28;20324;-74
2021/07/30 09:52:24;;;;;;;25.67;5.30;;;;;;;23.43;49.95;100667.38;5074567;28;20346;-74
2021/07/30 09:54:50;;;;;;;12.68;3.80;;;;;;;23.06;48.98;100662.94;5089104;28;20040;-76
2021/07/30 09:57:17;;;;;;;16.35;4.00;;;;;;;23.18;50.34;100671.59;5073342;28;20029;-75
2021/07/30 09:59:43;;;;;;;19.45;3.80;;;;;;;23.22;48.56;100658.78;5084926;28;20040;-74
2021/07/30 10:02:16;;;;;;;6.95;3.33;;;;;;;23.14;47.94;100657.72;5061104;28;20103;-74
2021/07/30 10:04:44;;;;;;;16.83;4.32;;;;;;;23.44;48.92;100655.69;5080955;28;20040;-74
2021/07/30 10:07:12;;;;;;;19.23;3.78;;;;;;;23.87;49.20;100664.00;5066992;28;20215;-75
2021/07/30 10:09:37;;;;;;;5.13;3.33;;;;;;;22.88;49.02;100654.81;5082614;28;20331;-76
2021/07/30 10:12:03;;;;;;;22.27;4.43;;;;;;;23.51;49.12;100648.75;5082971;28;20032;-75
2021/07/30 10:14:29;;;;;;;19.23;3.75;;;;;;;23.56;48.24;100653.66;5060492;28;20021;-74
2021/07/30 10:17:04;;;;;;;10.15;3.45;;;;;;;23.73;48.21;100651.97;5084636;28;20041;-74
2021/07/30 10:19:31;;;;;;;13.00;3.42;;;;;;;23.48;48.66;100645.53;5060089;28;20088;-73
2021/07/30 10:21:59;;;;;;;5.77;3.30;;;;;;;23.56;49.15;100643.81;5046939;28;20043;-75
2021/07/30 10:24:25;;;;;;;24.35;4.43;;;;;;;23.47;50.27;100641.19;5080617;28;20032;-74
2021/07/30 10:26:50;;;;;;;9.90;3.80;;;;;;;23.58;49.80;100635.63;5061220;28;20343;-75
2021/07/30 10:29:16;;;;;;;16.63;3.90;;;;;;;23.18;50.73;100647.56;5054078;28;20085;-73
2021/07/30 10:31:50;;;;;;;19.60;4.05;;;;;;;23.29;49.23;100635.84;5077551;28;20032;-73
2021/07/30 10:34:36;;;;;;;6.38;3.10;;;;;;;22.87;50.54;100644.31;5079019;28;20073;-73
2021/07/30 10:37:02;;;;;;;17.83;3.88;;;;;;;22.79;50.25;100637.88;5070173;28;20347;-73
2021/07/30 10:39:27;;;;;;;20.92;3.50;;;;;;;22.98;49.92;100642.28;5086281;28;20239;-75
2021/07/30 10:42:12;;;;;;;23.45;3.95;;;;;;;23.27;50.45;100635.97;5085225;28;20034;-73
2021/07/30 10:45:19;;;;;;;7.60;2.88;;;;;;;22.76;50.14;100634.66;5077611;28;20036;-74
2021/07/30 10:47:44;;;;;;;17.88;3.00;;;;;;;22.79;52.38;100635.22;5077151;28;20040;-72
2021/07/30 10:50:42;;;;;;;19.55;3.50;;;;;;;22.77;52.45;100633.66;5080324;28;20327;-72
2021/07/30 10:53:38;;;;;;;29.52;4.25;;;;;;;22.48;52.86;100633.75;5079515;28;20244;-72
2021/07/30 10:56:08;;;;;;;15.45;3.50;;;;;;;21.77;54.93;100632.28;5077755;28;20101;-71
2021/07/30 10:58:39;;;;;;;7.53;3.00;;;;;;;22.57;52.79;100630.22;5060629;28;20371;-72
2021/07/30 11:01:04;;;;;;;10.00;3.22;;;;;;;22.53;52.53;100624.34;5077612;28;20090;-72
2021/07/30 11:03:52;;;;;;;8.13;2.90;;;;;;;22.35;52.99;100626.91;5073830;28;20044;-72
2021/07/30 11:06:22;;;;;;;16.63;3.25;;;;;;;22.75;51.86;100623.13;5076569;28;20095;-73
2021/07/30 11:11:42;;;;;;;7.23;2.77;;;;;;;21.89;53.11;100620.50;5077056;28;20037;-74
2021/07/30 11:14:21;;;;;;;6.72;2.50;;;;;;;22.26;52.91;100621.56;5086802;28;20104;-73
2021/07/30 11:16:59;;;;;;;8.88;2.95;;;;;;;21.98;53.76;100618.81;5088915;28;20440;-74
2021/07/30 11:19:38;;;;;;;10.07;2.97;;;;;;;21.90;53.94;100616.00;5091830;28;20024;-74
2021/07/30 11:22:05;;;;;;;9.63;3.47;;;;;;;21.85;54.37;100627.09;5069190;28;20056;-74